sensor_id;sensor_type;location;lat;lon;timestamp;P1;durP1;ratioP1;P2;durP2;ratioP2
21032;SDS011;10675;47.976;7.824;2023-02-22T00:01:51;3.43;;;1.70;;
21032;SDS011;10675;47.976;7.824;2023-02-22T00:04:34;2.97;;;1.70;;
21032;SDS011;10675;47.976;7.824;2023-02-22T00:07:04;4.63;;;2.03;;
21032;SDS011;10675;47.976;7.824;2023-02-22T00:09:29;7.20;;;3.00;;
21032;SDS011;10675;47.976;7.824;2023-02-22T00:11:55;4.20;;;2.40;;
21032;SDS011;10675;47.976;7.824;2023-02-22T00:14:22;5.03;;;2.10;;
21032;SDS011;10675;47.976;7.824;2023-02-22T00:16:51;3.30;;;1.87;;
21032;SDS011;10675;47.976;7.824;2023-02-22T00:19:17;2.03;;;1.83;;
21032;SDS011;10675;47.976;7.824;2023-02-22T00:21:42;2.00;;;1.77;;
21032;SDS011;10675;47.976;7.824;2023-02-22T00:24:08;2.07;;;1.43;;
21032;SDS011;10675;47.976;7.824;2023-02-22T00:26:47;4.63;;;2.00;;
21032;SDS011;10675;47.976;7.824;2023-02-22T00:29:14;2.93;;;1.70;;
21032;SDS011;10675;47.976;7.824;2023-02-22T00:31:39;3.43;;;2.10;;
21032;SDS011;10675;47.976;7.824;2023-02-22T00:34:05;4.17;;;1.83;;
21032;SDS011;10675;47.976;7.824;2023-02-22T00:36:30;3.43;;;2.00;;
21032;SDS011;10675;47.976;7.824;2023-02-22T00:38:56;4.10;;;1.90;;
21032;SDS011;10675;47.976;7.824;2023-02-22T00:41:21;3.50;;;1.97;;
21032;SDS011;10675;47.976;7.824;2023-02-22T00:43:47;5.30;;;2.10;;
21032;SDS011;10675;47.976;7.824;2023-02-22T00:46:13;3.17;;;1.80;;
21032;SDS011;10675;47.976;7.824;2023-02-22T00:48:39;2.60;;;1.90;;
21032;SDS011;10675;47.976;7.824;2023-02-22T00:51:04;4.63;;;2.00;;
21032;SDS011;10675;47.976;7.824;2023-02-22T00:53:30;4.17;;;2.17;;
21032;SDS011;10675;47.976;7.824;2023-02-22T00:55:56;4.40;;;2.33;;
21032;SDS011;10675;47.976;7.824;2023-02-22T00:58:21;5.37;;;1.90;;
21032;SDS011;10675;47.976;7.824;2023-02-22T01:00:48;2.00;;;1.77;;
21032;SDS011;10675;47.976;7.824;2023-02-22T01:03:15;2.20;;;1.80;;
21032;SDS011;10675;47.976;7.824;2023-02-22T01:05:42;4.57;;;2.00;;
21032;SDS011;10675;47.976;7.824;2023-02-22T01:10:36;3.60;;;2.10;;
21032;SDS011;10675;47.976;7.824;2023-02-22T01:13:03;2.63;;;1.70;;
21032;SDS011;10675;47.976;7.824;2023-02-22T01:15:32;2.00;;;1.73;;
21032;SDS011;10675;47.976;7.824;2023-02-22T01:17:59;3.27;;;2.00;;
21032;SDS011;10675;47.976;7.824;2023-02-22T01:20:25;1.90;;;1.73;;
21032;SDS011;10675;47.976;7.824;2023-02-22T01:22:52;2.77;;;1.90;;
21032;SDS011;10675;47.976;7.824;2023-02-22T01:25:21;5.57;;;2.00;;
21032;SDS011;10675;47.976;7.824;2023-02-22T01:27:48;2.03;;;1.70;;
21032;SDS011;10675;47.976;7.824;2023-02-22T01:30:15;2.77;;;1.57;;
21032;SDS011;10675;47.976;7.824;2023-02-22T01:32:45;2.03;;;1.60;;
21032;SDS011;10675;47.976;7.824;2023-02-22T01:35:12;3.20;;;2.00;;
21032;SDS011;10675;47.976;7.824;2023-02-22T01:37:39;2.90;;;1.70;;
21032;SDS011;10675;47.976;7.824;2023-02-22T01:40:06;3.97;;;1.90;;
21032;SDS011;10675;47.976;7.824;2023-02-22T01:42:33;4.43;;;1.70;;
21032;SDS011;10675;47.976;7.824;2023-02-22T01:50:32;2.63;;;1.50;;
21032;SDS011;10675;47.976;7.824;2023-02-22T01:53:01;2.23;;;1.30;;
21032;SDS011;10675;47.976;7.824;2023-02-22T01:55:28;3.37;;;1.23;;
21032;SDS011;10675;47.976;7.824;2023-02-22T01:57:55;2.17;;;1.80;;
21032;SDS011;10675;47.976;7.824;2023-02-22T02:00:21;2.20;;;1.40;;
21032;SDS011;10675;47.976;7.824;2023-02-22T02:02:52;3.67;;;1.50;;
21032;SDS011;10675;47.976;7.824;2023-02-22T02:05:24;2.47;;;1.70;;
21032;SDS011;10675;47.976;7.824;2023-02-22T02:07:51;3.03;;;1.63;;
21032;SDS011;10675;47.976;7.824;2023-02-22T02:10:18;1.67;;;1.40;;
21032;SDS011;10675;47.976;7.824;2023-02-22T02:12:45;2.70;;;1.30;;
21032;SDS011;10675;47.976;7.824;2023-02-22T02:17:45;1.77;;;1.30;;
21032;SDS011;10675;47.976;7.824;2023-02-22T02:30:42;2.23;;;1.50;;
21032;SDS011;10675;47.976;7.824;2023-02-22T02:33:34;1.37;;;1.17;;
21032;SDS011;10675;47.976;7.824;2023-02-22T02:38:53;1.30;;;1.20;;
21032;SDS011;10675;47.976;7.824;2023-02-22T02:41:32;1.60;;;1.20;;
21032;SDS011;10675;47.976;7.824;2023-02-22T02:44:14;1.57;;;1.20;;
21032;SDS011;10675;47.976;7.824;2023-02-22T02:46:49;1.57;;;1.30;;
21032;SDS011;10675;47.976;7.824;2023-02-22T02:49:21;3.77;;;1.60;;
21032;SDS011;10675;47.976;7.824;2023-02-22T02:51:53;1.60;;;1.47;;
21032;SDS011;10675;47.976;7.824;2023-02-22T02:54:21;1.43;;;1.30;;
21032;SDS011;10675;47.976;7.824;2023-02-22T02:56:48;3.57;;;1.47;;
21032;SDS011;10675;47.976;7.824;2023-02-22T03:10:14;4.00;;;1.47;;
21032;SDS011;10675;47.976;7.824;2023-02-22T03:12:54;1.70;;;0.93;;
21032;SDS011;10675;47.976;7.824;2023-02-22T03:19:03;1.97;;;1.43;;
21032;SDS011;10675;47.976;7.824;2023-02-22T03:21:18;1.63;;;1.27;;
21032;SDS011;10675;47.976;7.824;2023-02-22T03:24:35;2.03;;;1.10;;
21032;SDS011;10675;47.976;7.824;2023-02-22T03:26:40;3.37;;;1.60;;
21032;SDS011;10675;47.976;7.824;2023-02-22T03:29:09;2.60;;;1.70;;
21032;SDS011;10675;47.976;7.824;2023-02-22T03:31:38;1.40;;;1.30;;
21032;SDS011;10675;47.976;7.824;2023-02-22T03:34:19;1.97;;;1.67;;
21032;SDS011;10675;47.976;7.824;2023-02-22T03:36:49;2.17;;;1.40;;
21032;SDS011;10675;47.976;7.824;2023-02-22T03:39:24;4.93;;;1.90;;
21032;SDS011;10675;47.976;7.824;2023-02-22T03:41:55;2.63;;;1.37;;
21032;SDS011;10675;47.976;7.824;2023-02-22T03:44:25;2.67;;;1.90;;
21032;SDS011;10675;47.976;7.824;2023-02-22T03:46:55;1.57;;;1.40;;
21032;SDS011;10675;47.976;7.824;2023-02-22T03:49:31;1.57;;;1.40;;
21032;SDS011;10675;47.976;7.824;2023-02-22T03:52:00;1.60;;;1.43;;
21032;SDS011;10675;47.976;7.824;2023-02-22T03:54:27;2.10;;;1.67;;
21032;SDS011;10675;47.976;7.824;2023-02-22T03:56:54;1.40;;;1.30;;
21032;SDS011;10675;47.976;7.824;2023-02-22T03:59:23;1.60;;;1.50;;
21032;SDS011;10675;47.976;7.824;2023-02-22T04:01:52;2.60;;;1.93;;
21032;SDS011;10675;47.976;7.824;2023-02-22T04:04:18;1.80;;;1.43;;
21032;SDS011;10675;47.976;7.824;2023-02-22T04:06:45;2.30;;;1.40;;
21032;SDS011;10675;47.976;7.824;2023-02-22T04:09:12;2.27;;;1.30;;
21032;SDS011;10675;47.976;7.824;2023-02-22T04:11:38;1.67;;;1.13;;
21032;SDS011;10675;47.976;7.824;2023-02-22T04:14:03;3.00;;;1.53;;
21032;SDS011;10675;47.976;7.824;2023-02-22T04:16:29;1.87;;;1.43;;
21032;SDS011;10675;47.976;7.824;2023-02-22T04:18:54;2.10;;;1.57;;
21032;SDS011;10675;47.976;7.824;2023-02-22T04:21:20;1.90;;;1.50;;
21032;SDS011;10675;47.976;7.824;2023-02-22T04:23:46;1.27;;;1.17;;
21032;SDS011;10675;47.976;7.824;2023-02-22T04:26:11;3.17;;;1.90;;
21032;SDS011;10675;47.976;7.824;2023-02-22T04:28:37;2.60;;;1.43;;
21032;SDS011;10675;47.976;7.824;2023-02-22T04:31:02;3.67;;;1.57;;
21032;SDS011;10675;47.976;7.824;2023-02-22T04:33:28;2.97;;;1.27;;
21032;SDS011;10675;47.976;7.824;2023-02-22T04:35:53;3.67;;;1.57;;
21032;SDS011;10675;47.976;7.824;2023-02-22T04:38:21;1.50;;;1.40;;
21032;SDS011;10675;47.976;7.824;2023-02-22T04:40:49;1.30;;;1.20;;
21032;SDS011;10675;47.976;7.824;2023-02-22T04:43:15;1.50;;;1.17;;
21032;SDS011;10675;47.976;7.824;2023-02-22T04:45:41;2.87;;;1.93;;
21032;SDS011;10675;47.976;7.824;2023-02-22T04:48:06;2.43;;;1.53;;
21032;SDS011;10675;47.976;7.824;2023-02-22T04:50:32;2.83;;;1.47;;
21032;SDS011;10675;47.976;7.824;2023-02-22T04:52:58;2.20;;;1.70;;
21032;SDS011;10675;47.976;7.824;2023-02-22T04:55:23;1.87;;;1.50;;
21032;SDS011;10675;47.976;7.824;2023-02-22T04:57:49;2.80;;;1.60;;
21032;SDS011;10675;47.976;7.824;2023-02-22T05:00:17;3.63;;;1.87;;
21032;SDS011;10675;47.976;7.824;2023-02-22T05:02:45;2.73;;;1.63;;
21032;SDS011;10675;47.976;7.824;2023-02-22T05:05:12;2.40;;;1.60;;
21032;SDS011;10675;47.976;7.824;2023-02-22T05:07:38;2.60;;;1.80;;
21032;SDS011;10675;47.976;7.824;2023-02-22T05:10:04;2.43;;;1.70;;
21032;SDS011;10675;47.976;7.824;2023-02-22T05:12:30;1.77;;;1.27;;
21032;SDS011;10675;47.976;7.824;2023-02-22T05:14:55;2.53;;;1.97;;
21032;SDS011;10675;47.976;7.824;2023-02-22T05:17:21;1.70;;;1.40;;
21032;SDS011;10675;47.976;7.824;2023-02-22T05:19:46;2.93;;;1.53;;
21032;SDS011;10675;47.976;7.824;2023-02-22T05:22:12;1.30;;;1.20;;
21032;SDS011;10675;47.976;7.824;2023-02-22T05:24:37;2.47;;;1.80;;
21032;SDS011;10675;47.976;7.824;2023-02-22T05:27:03;3.67;;;1.50;;
21032;SDS011;10675;47.976;7.824;2023-02-22T05:29:28;4.50;;;1.47;;
21032;SDS011;10675;47.976;7.824;2023-02-22T05:31:54;2.03;;;1.50;;
21032;SDS011;10675;47.976;7.824;2023-02-22T05:34:19;3.37;;;2.00;;
21032;SDS011;10675;47.976;7.824;2023-02-22T05:36:45;4.80;;;1.70;;
21032;SDS011;10675;47.976;7.824;2023-02-22T05:39:10;2.63;;;2.17;;
21032;SDS011;10675;47.976;7.824;2023-02-22T05:41:36;5.27;;;3.20;;
21032;SDS011;10675;47.976;7.824;2023-02-22T05:44:01;2.73;;;2.10;;
21032;SDS011;10675;47.976;7.824;2023-02-22T05:46:27;2.33;;;2.00;;
21032;SDS011;10675;47.976;7.824;2023-02-22T05:48:53;4.60;;;1.87;;
21032;SDS011;10675;47.976;7.824;2023-02-22T05:51:19;3.80;;;2.20;;
21032;SDS011;10675;47.976;7.824;2023-02-22T05:53:45;2.03;;;1.83;;
21032;SDS011;10675;47.976;7.824;2023-02-22T05:56:10;3.47;;;1.97;;
21032;SDS011;10675;47.976;7.824;2023-02-22T05:58:36;5.77;;;2.10;;
21032;SDS011;10675;47.976;7.824;2023-02-22T06:01:01;4.60;;;1.60;;
21032;SDS011;10675;47.976;7.824;2023-02-22T06:03:27;3.00;;;1.93;;
21032;SDS011;10675;47.976;7.824;2023-02-22T06:05:52;2.97;;;2.47;;
21032;SDS011;10675;47.976;7.824;2023-02-22T06:08:18;3.43;;;2.00;;
21032;SDS011;10675;47.976;7.824;2023-02-22T06:10:43;2.90;;;2.00;;
21032;SDS011;10675;47.976;7.824;2023-02-22T06:13:09;4.37;;;2.00;;
21032;SDS011;10675;47.976;7.824;2023-02-22T06:15:34;4.30;;;2.10;;
21032;SDS011;10675;47.976;7.824;2023-02-22T06:18:00;4.57;;;2.27;;
21032;SDS011;10675;47.976;7.824;2023-02-22T06:20:26;4.57;;;2.10;;
21032;SDS011;10675;47.976;7.824;2023-02-22T06:22:53;3.50;;;2.07;;
21032;SDS011;10675;47.976;7.824;2023-02-22T06:25:21;5.00;;;2.07;;
21032;SDS011;10675;47.976;7.824;2023-02-22T06:27:49;2.37;;;1.67;;
21032;SDS011;10675;47.976;7.824;2023-02-22T06:30:15;3.30;;;1.90;;
21032;SDS011;10675;47.976;7.824;2023-02-22T06:32:42;7.10;;;2.37;;
21032;SDS011;10675;47.976;7.824;2023-02-22T06:35:08;4.73;;;2.53;;
21032;SDS011;10675;47.976;7.824;2023-02-22T06:37:34;2.83;;;1.60;;
21032;SDS011;10675;47.976;7.824;2023-02-22T06:40:00;2.90;;;2.10;;
21032;SDS011;10675;47.976;7.824;2023-02-22T06:42:25;4.37;;;2.60;;
21032;SDS011;10675;47.976;7.824;2023-02-22T06:44:51;2.93;;;2.20;;
21032;SDS011;10675;47.976;7.824;2023-02-22T06:47:16;5.20;;;2.80;;
21032;SDS011;10675;47.976;7.824;2023-02-22T06:49:42;4.97;;;1.80;;
21032;SDS011;10675;47.976;7.824;2023-02-22T06:52:08;3.37;;;2.43;;
21032;SDS011;10675;47.976;7.824;2023-02-22T06:54:34;3.13;;;2.40;;
21032;SDS011;10675;47.976;7.824;2023-02-22T06:57:00;5.27;;;2.43;;
21032;SDS011;10675;47.976;7.824;2023-02-22T06:59:26;4.77;;;2.77;;
21032;SDS011;10675;47.976;7.824;2023-02-22T07:01:52;4.83;;;2.67;;
21032;SDS011;10675;47.976;7.824;2023-02-22T07:04:17;7.00;;;3.00;;
21032;SDS011;10675;47.976;7.824;2023-02-22T07:06:44;4.23;;;2.80;;
21032;SDS011;10675;47.976;7.824;2023-02-22T07:09:14;3.63;;;2.73;;
21032;SDS011;10675;47.976;7.824;2023-02-22T07:11:41;4.33;;;2.83;;
21032;SDS011;10675;47.976;7.824;2023-02-22T07:14:07;3.37;;;2.53;;
21032;SDS011;10675;47.976;7.824;2023-02-22T07:16:33;4.87;;;3.10;;
21032;SDS011;10675;47.976;7.824;2023-02-22T07:18:59;6.40;;;3.10;;
21032;SDS011;10675;47.976;7.824;2023-02-22T07:21:25;4.53;;;2.83;;
21032;SDS011;10675;47.976;7.824;2023-02-22T07:23:52;6.80;;;2.43;;
21032;SDS011;10675;47.976;7.824;2023-02-22T07:26:19;4.07;;;2.93;;
21032;SDS011;10675;47.976;7.824;2023-02-22T07:28:45;3.47;;;2.07;;
21032;SDS011;10675;47.976;7.824;2023-02-22T07:31:10;4.37;;;2.07;;
21032;SDS011;10675;47.976;7.824;2023-02-22T07:33:36;3.53;;;2.10;;
21032;SDS011;10675;47.976;7.824;2023-02-22T07:36:01;5.60;;;2.37;;
21032;SDS011;10675;47.976;7.824;2023-02-22T07:38:27;3.47;;;2.40;;
21032;SDS011;10675;47.976;7.824;2023-02-22T07:40:53;8.47;;;2.47;;
21032;SDS011;10675;47.976;7.824;2023-02-22T07:43:22;3.00;;;2.70;;
21032;SDS011;10675;47.976;7.824;2023-02-22T07:45:50;5.60;;;2.70;;
21032;SDS011;10675;47.976;7.824;2023-02-22T07:48:17;3.83;;;2.50;;
21032;SDS011;10675;47.976;7.824;2023-02-22T07:50:44;3.43;;;2.00;;
21032;SDS011;10675;47.976;7.824;2023-02-22T07:53:12;6.00;;;2.23;;
21032;SDS011;10675;47.976;7.824;2023-02-22T07:55:39;5.17;;;2.13;;
21032;SDS011;10675;47.976;7.824;2023-02-22T07:58:06;6.03;;;2.23;;
21032;SDS011;10675;47.976;7.824;2023-02-22T08:00:36;3.73;;;1.63;;
21032;SDS011;10675;47.976;7.824;2023-02-22T08:03:04;3.07;;;1.90;;
21032;SDS011;10675;47.976;7.824;2023-02-22T08:05:35;3.23;;;1.80;;
21032;SDS011;10675;47.976;7.824;2023-02-22T08:08:02;3.60;;;2.10;;
21032;SDS011;10675;47.976;7.824;2023-02-22T08:10:28;3.33;;;2.00;;
21032;SDS011;10675;47.976;7.824;2023-02-22T08:12:54;3.00;;;2.20;;
21032;SDS011;10675;47.976;7.824;2023-02-22T08:15:22;3.67;;;1.70;;
21032;SDS011;10675;47.976;7.824;2023-02-22T08:17:52;2.67;;;1.93;;
21032;SDS011;10675;47.976;7.824;2023-02-22T08:20:18;3.50;;;1.73;;
21032;SDS011;10675;47.976;7.824;2023-02-22T08:22:44;6.50;;;1.80;;
21032;SDS011;10675;47.976;7.824;2023-02-22T08:25:11;4.30;;;1.97;;
21032;SDS011;10675;47.976;7.824;2023-02-22T08:27:39;1.60;;;1.50;;
21032;SDS011;10675;47.976;7.824;2023-02-22T08:30:05;5.57;;;2.27;;
21032;SDS011;10675;47.976;7.824;2023-02-22T08:32:32;2.50;;;2.17;;
21032;SDS011;10675;47.976;7.824;2023-02-22T08:34:59;3.73;;;2.37;;
21032;SDS011;10675;47.976;7.824;2023-02-22T08:37:26;3.50;;;2.13;;
21032;SDS011;10675;47.976;7.824;2023-02-22T08:39:51;5.80;;;2.53;;
21032;SDS011;10675;47.976;7.824;2023-02-22T08:42:17;4.73;;;2.27;;
21032;SDS011;10675;47.976;7.824;2023-02-22T08:44:43;4.03;;;2.40;;
21032;SDS011;10675;47.976;7.824;2023-02-22T08:47:08;3.53;;;2.23;;
21032;SDS011;10675;47.976;7.824;2023-02-22T08:49:34;7.13;;;2.63;;
21032;SDS011;10675;47.976;7.824;2023-02-22T08:51:59;2.73;;;1.90;;
21032;SDS011;10675;47.976;7.824;2023-02-22T08:54:25;4.60;;;2.07;;
21032;SDS011;10675;47.976;7.824;2023-02-22T08:56:50;2.43;;;2.13;;
21032;SDS011;10675;47.976;7.824;2023-02-22T08:59:16;2.97;;;2.17;;
21032;SDS011;10675;47.976;7.824;2023-02-22T09:01:42;2.60;;;1.77;;
21032;SDS011;10675;47.976;7.824;2023-02-22T09:04:07;3.27;;;1.97;;
21032;SDS011;10675;47.976;7.824;2023-02-22T09:06:33;2.10;;;1.87;;
21032;SDS011;10675;47.976;7.824;2023-02-22T09:08:59;4.60;;;2.07;;
21032;SDS011;10675;47.976;7.824;2023-02-22T09:11:25;1.60;;;1.50;;
21032;SDS011;10675;47.976;7.824;2023-02-22T09:13:50;3.63;;;2.20;;
21032;SDS011;10675;47.976;7.824;2023-02-22T09:16:16;3.17;;;2.30;;
21032;SDS011;10675;47.976;7.824;2023-02-22T09:18:42;8.90;;;2.57;;
21032;SDS011;10675;47.976;7.824;2023-02-22T09:21:07;10.97;;;3.27;;
21032;SDS011;10675;47.976;7.824;2023-02-22T09:23:33;5.70;;;2.27;;
21032;SDS011;10675;47.976;7.824;2023-02-22T09:25:58;3.77;;;2.53;;
21032;SDS011;10675;47.976;7.824;2023-02-22T09:28:25;7.40;;;4.23;;
21032;SDS011;10675;47.976;7.824;2023-02-22T09:30:51;11.23;;;6.90;;
21032;SDS011;10675;47.976;7.824;2023-02-22T09:33:18;10.37;;;6.93;;
21032;SDS011;10675;47.976;7.824;2023-02-22T09:35:46;11.77;;;6.90;;
21032;SDS011;10675;47.976;7.824;2023-02-22T09:38:15;12.33;;;6.47;;
21032;SDS011;10675;47.976;7.824;2023-02-22T09:40:45;11.67;;;6.77;;
21032;SDS011;10675;47.976;7.824;2023-02-22T09:48:32;11.90;;;7.60;;
21032;SDS011;10675;47.976;7.824;2023-02-22T09:51:00;12.93;;;7.27;;
21032;SDS011;10675;47.976;7.824;2023-02-22T09:53:32;13.13;;;7.77;;
21032;SDS011;10675;47.976;7.824;2023-02-22T09:56:06;12.17;;;7.13;;
21032;SDS011;10675;47.976;7.824;2023-02-22T09:58:45;13.00;;;8.37;;
21032;SDS011;10675;47.976;7.824;2023-02-22T10:04:04;13.50;;;7.57;;
21032;SDS011;10675;47.976;7.824;2023-02-22T10:06:34;13.97;;;7.70;;
21032;SDS011;10675;47.976;7.824;2023-02-22T10:09:03;11.20;;;6.80;;
21032;SDS011;10675;47.976;7.824;2023-02-22T10:14:24;11.10;;;6.70;;
21032;SDS011;10675;47.976;7.824;2023-02-22T10:17:14;12.53;;;6.87;;
21032;SDS011;10675;47.976;7.824;2023-02-22T10:25:38;12.33;;;6.73;;
21032;SDS011;10675;47.976;7.824;2023-02-22T10:28:19;10.07;;;6.30;;
21032;SDS011;10675;47.976;7.824;2023-02-22T10:30:49;12.50;;;6.87;;
21032;SDS011;10675;47.976;7.824;2023-02-22T10:33:21;11.77;;;7.70;;
21032;SDS011;10675;47.976;7.824;2023-02-22T10:35:51;15.73;;;7.63;;
21032;SDS011;10675;47.976;7.824;2023-02-22T10:38:25;13.33;;;8.00;;
21032;SDS011;10675;47.976;7.824;2023-02-22T10:43:27;10.10;;;6.70;;
21032;SDS011;10675;47.976;7.824;2023-02-22T10:45:55;11.57;;;7.93;;
21032;SDS011;10675;47.976;7.824;2023-02-22T10:48:25;11.00;;;6.67;;
21032;SDS011;10675;47.976;7.824;2023-02-22T10:50:56;11.50;;;7.07;;
21032;SDS011;10675;47.976;7.824;2023-02-22T10:53:25;12.83;;;7.07;;
21032;SDS011;10675;47.976;7.824;2023-02-22T10:58:52;15.37;;;7.47;;
21032;SDS011;10675;47.976;7.824;2023-02-22T11:01:26;16.97;;;8.17;;
21032;SDS011;10675;47.976;7.824;2023-02-22T11:03:55;11.20;;;7.37;;
21032;SDS011;10675;47.976;7.824;2023-02-22T11:06:24;14.93;;;8.00;;
21032;SDS011;10675;47.976;7.824;2023-02-22T11:08:50;12.07;;;7.67;;
21032;SDS011;10675;47.976;7.824;2023-02-22T11:11:27;10.73;;;7.40;;
21032;SDS011;10675;47.976;7.824;2023-02-22T11:13:54;13.90;;;7.60;;
21032;SDS011;10675;47.976;7.824;2023-02-22T11:16:34;11.13;;;6.67;;
21032;SDS011;10675;47.976;7.824;2023-02-22T11:19:15;10.43;;;6.80;;
21032;SDS011;10675;47.976;7.824;2023-02-22T11:21:54;12.57;;;7.07;;
21032;SDS011;10675;47.976;7.824;2023-02-22T11:24:22;10.13;;;6.77;;
21032;SDS011;10675;47.976;7.824;2023-02-22T11:26:52;11.67;;;7.37;;
21032;SDS011;10675;47.976;7.824;2023-02-22T11:29:30;11.07;;;7.00;;
21032;SDS011;10675;47.976;7.824;2023-02-22T11:32:20;12.10;;;7.07;;
21032;SDS011;10675;47.976;7.824;2023-02-22T11:34:46;9.13;;;6.50;;
21032;SDS011;10675;47.976;7.824;2023-02-22T11:42:43;11.70;;;6.90;;
21032;SDS011;10675;47.976;7.824;2023-02-22T11:45:20;11.13;;;6.43;;
21032;SDS011;10675;47.976;7.824;2023-02-22T11:47:52;12.83;;;7.70;;
21032;SDS011;10675;47.976;7.824;2023-02-22T11:52:54;9.73;;;6.17;;
21032;SDS011;10675;47.976;7.824;2023-02-22T12:01:29;15.87;;;6.77;;
21032;SDS011;10675;47.976;7.824;2023-02-22T12:09:47;10.60;;;6.80;;
21032;SDS011;10675;47.976;7.824;2023-02-22T12:15:00;12.63;;;6.70;;
21032;SDS011;10675;47.976;7.824;2023-02-22T12:17:36;11.07;;;6.73;;
21032;SDS011;10675;47.976;7.824;2023-02-22T12:22:43;10.67;;;7.20;;
21032;SDS011;10675;47.976;7.824;2023-02-22T12:30:12;10.17;;;6.50;;
21032;SDS011;10675;47.976;7.824;2023-02-22T12:33:01;10.60;;;7.20;;
21032;SDS011;10675;47.976;7.824;2023-02-22T12:35:34;10.67;;;6.70;;
21032;SDS011;10675;47.976;7.824;2023-02-22T12:38:13;13.10;;;7.50;;
21032;SDS011;10675;47.976;7.824;2023-02-22T12:43:47;14.53;;;6.73;;
21032;SDS011;10675;47.976;7.824;2023-02-22T12:46:23;11.00;;;6.90;;
21032;SDS011;10675;47.976;7.824;2023-02-22T12:49:10;12.07;;;6.80;;
21032;SDS011;10675;47.976;7.824;2023-02-22T12:51:40;9.30;;;5.87;;
21032;SDS011;10675;47.976;7.824;2023-02-22T12:54:13;11.17;;;6.37;;
21032;SDS011;10675;47.976;7.824;2023-02-22T12:56:54;11.10;;;6.70;;
21032;SDS011;10675;47.976;7.824;2023-02-22T13:01:53;10.90;;;6.83;;
21032;SDS011;10675;47.976;7.824;2023-02-22T13:04:22;8.73;;;6.07;;
21032;SDS011;10675;47.976;7.824;2023-02-22T13:12:00;10.37;;;6.73;;
21032;SDS011;10675;47.976;7.824;2023-02-22T13:14:53;10.30;;;6.10;;
21032;SDS011;10675;47.976;7.824;2023-02-22T13:20:20;12.30;;;6.70;;
21032;SDS011;10675;47.976;7.824;2023-02-22T13:25:23;12.37;;;6.90;;
21032;SDS011;10675;47.976;7.824;2023-02-22T13:30:26;13.77;;;7.40;;
21032;SDS011;10675;47.976;7.824;2023-02-22T13:32:58;12.57;;;7.17;;
21032;SDS011;10675;47.976;7.824;2023-02-22T13:40:54;12.03;;;7.30;;
21032;SDS011;10675;47.976;7.824;2023-02-22T13:51:22;13.07;;;6.37;;
21032;SDS011;10675;47.976;7.824;2023-02-22T13:53:57;10.60;;;7.07;;
21032;SDS011;10675;47.976;7.824;2023-02-22T13:56:25;10.30;;;6.93;;
21032;SDS011;10675;47.976;7.824;2023-02-22T13:58:53;11.47;;;7.27;;
21032;SDS011;10675;47.976;7.824;2023-02-22T14:01:35;12.47;;;7.53;;
21032;SDS011;10675;47.976;7.824;2023-02-22T14:04:18;15.10;;;7.53;;
21032;SDS011;10675;47.976;7.824;2023-02-22T14:06:44;10.10;;;7.00;;
21032;SDS011;10675;47.976;7.824;2023-02-22T14:09:18;9.27;;;6.63;;
21032;SDS011;10675;47.976;7.824;2023-02-22T14:12:02;13.37;;;7.33;;
21032;SDS011;10675;47.976;7.824;2023-02-22T14:14:28;11.90;;;7.83;;
21032;SDS011;10675;47.976;7.824;2023-02-22T14:19:39;11.60;;;6.93;;
21032;SDS011;10675;47.976;7.824;2023-02-22T14:22:05;10.23;;;7.07;;
21032;SDS011;10675;47.976;7.824;2023-02-22T14:24:42;12.73;;;7.80;;
21032;SDS011;10675;47.976;7.824;2023-02-22T14:27:09;9.13;;;6.83;;
21032;SDS011;10675;47.976;7.824;2023-02-22T14:29:35;12.33;;;6.10;;
21032;SDS011;10675;47.976;7.824;2023-02-22T14:32:10;11.53;;;6.57;;
21032;SDS011;10675;47.976;7.824;2023-02-22T14:34:40;14.10;;;7.13;;
21032;SDS011;10675;47.976;7.824;2023-02-22T14:37:07;11.63;;;6.70;;
21032;SDS011;10675;47.976;7.824;2023-02-22T14:39:46;9.77;;;6.60;;
21032;SDS011;10675;47.976;7.824;2023-02-22T14:44:56;10.23;;;6.90;;
21032;SDS011;10675;47.976;7.824;2023-02-22T14:47:36;12.57;;;7.07;;
21032;SDS011;10675;47.976;7.824;2023-02-22T14:50:11;11.47;;;7.10;;
21032;SDS011;10675;47.976;7.824;2023-02-22T14:52:39;13.47;;;6.40;;
21032;SDS011;10675;47.976;7.824;2023-02-22T14:55:20;11.93;;;7.37;;
21032;SDS011;10675;47.976;7.824;2023-02-22T14:57:49;10.07;;;6.67;;
21032;SDS011;10675;47.976;7.824;2023-02-22T15:00:22;11.10;;;6.60;;
21032;SDS011;10675;47.976;7.824;2023-02-22T15:02:55;12.70;;;7.33;;
21032;SDS011;10675;47.976;7.824;2023-02-22T15:05:23;11.13;;;6.83;;
21032;SDS011;10675;47.976;7.824;2023-02-22T15:08:02;9.90;;;6.97;;
21032;SDS011;10675;47.976;7.824;2023-02-22T15:10:29;10.43;;;6.27;;
21032;SDS011;10675;47.976;7.824;2023-02-22T15:12:59;13.00;;;7.37;;
21032;SDS011;10675;47.976;7.824;2023-02-22T15:16:20;19.17;;;7.47;;
21032;SDS011;10675;47.976;7.824;2023-02-22T15:18:36;13.10;;;7.93;;
21032;SDS011;10675;47.976;7.824;2023-02-22T15:24:06;10.90;;;7.23;;
21032;SDS011;10675;47.976;7.824;2023-02-22T15:26:38;12.20;;;7.97;;
21032;SDS011;10675;47.976;7.824;2023-02-22T15:29:25;14.37;;;7.43;;
21032;SDS011;10675;47.976;7.824;2023-02-22T15:31:54;12.40;;;7.60;;
21032;SDS011;10675;47.976;7.824;2023-02-22T15:34:26;11.73;;;7.90;;
21032;SDS011;10675;47.976;7.824;2023-02-22T15:36:54;13.37;;;7.33;;
21032;SDS011;10675;47.976;7.824;2023-02-22T15:41:49;13.77;;;7.43;;
21032;SDS011;10675;47.976;7.824;2023-02-22T15:44:25;16.27;;;6.90;;
21032;SDS011;10675;47.976;7.824;2023-02-22T15:46:51;15.80;;;8.27;;
21032;SDS011;10675;47.976;7.824;2023-02-22T15:49:19;12.13;;;7.33;;
21032;SDS011;10675;47.976;7.824;2023-02-22T15:52:00;14.20;;;7.83;;
21032;SDS011;10675;47.976;7.824;2023-02-22T15:54:27;13.60;;;7.20;;
21032;SDS011;10675;47.976;7.824;2023-02-22T15:56:53;12.53;;;7.87;;
21032;SDS011;10675;47.976;7.824;2023-02-22T15:59:20;13.07;;;7.07;;
21032;SDS011;10675;47.976;7.824;2023-02-22T16:01:49;15.77;;;7.40;;
21032;SDS011;10675;47.976;7.824;2023-02-22T16:04:16;10.50;;;5.83;;
21032;SDS011;10675;47.976;7.824;2023-02-22T16:06:42;11.30;;;6.73;;
21032;SDS011;10675;47.976;7.824;2023-02-22T16:11:36;11.13;;;7.10;;
21032;SDS011;10675;47.976;7.824;2023-02-22T16:14:05;13.07;;;7.30;;
21032;SDS011;10675;47.976;7.824;2023-02-22T16:16:38;14.30;;;7.63;;
21032;SDS011;10675;47.976;7.824;2023-02-22T16:19:23;13.33;;;6.73;;
21032;SDS011;10675;47.976;7.824;2023-02-22T16:21:51;13.60;;;7.23;;
21032;SDS011;10675;47.976;7.824;2023-02-22T16:24:24;10.63;;;6.17;;
21032;SDS011;10675;47.976;7.824;2023-02-22T16:32:31;11.07;;;6.53;;
21032;SDS011;10675;47.976;7.824;2023-02-22T16:34:57;10.63;;;6.00;;
21032;SDS011;10675;47.976;7.824;2023-02-22T16:37:23;17.87;;;7.70;;
21032;SDS011;10675;47.976;7.824;2023-02-22T16:39:52;10.20;;;5.90;;
21032;SDS011;10675;47.976;7.824;2023-02-22T16:42:19;13.77;;;7.00;;
21032;SDS011;10675;47.976;7.824;2023-02-22T16:44:48;11.50;;;6.83;;
21032;SDS011;10675;47.976;7.824;2023-02-22T16:47:14;12.43;;;6.47;;
21032;SDS011;10675;47.976;7.824;2023-02-22T16:49:40;14.53;;;7.27;;
21032;SDS011;10675;47.976;7.824;2023-02-22T16:52:06;14.10;;;7.80;;
21032;SDS011;10675;47.976;7.824;2023-02-22T16:54:39;17.00;;;7.53;;
21032;SDS011;10675;47.976;7.824;2023-02-22T16:57:05;12.13;;;7.33;;
21032;SDS011;10675;47.976;7.824;2023-02-22T16:59:34;11.07;;;7.03;;
21032;SDS011;10675;47.976;7.824;2023-02-22T17:02:00;16.50;;;6.77;;
21032;SDS011;10675;47.976;7.824;2023-02-22T17:04:31;13.57;;;7.23;;
21032;SDS011;10675;47.976;7.824;2023-02-22T17:06:57;12.47;;;7.40;;
21032;SDS011;10675;47.976;7.824;2023-02-22T17:09:23;12.07;;;7.43;;
21032;SDS011;10675;47.976;7.824;2023-02-22T17:11:50;14.93;;;7.07;;
21032;SDS011;10675;47.976;7.824;2023-02-22T17:14:18;12.93;;;7.37;;
21032;SDS011;10675;47.976;7.824;2023-02-22T17:16:47;13.60;;;7.60;;